sensor_id;sensor_type;location;lat;lon;timestamp;P1;durP1;ratioP1;P2;durP2;ratioP2
39896;SDS011;25567;48.276;14.242;2022-12-18T00:02:07;120.18;;;36.30;;
39896;SDS011;25567;48.276;14.242;2022-12-18T00:04:34;134.63;;;38.85;;
39896;SDS011;25567;48.276;14.242;2022-12-18T00:07:01;117.18;;;36.85;;
39896;SDS011;25567;48.276;14.242;2022-12-18T00:09:27;116.50;;;35.40;;
39896;SDS011;25567;48.276;14.242;2022-12-18T00:12:05;124.03;;;37.45;;
39896;SDS011;25567;48.276;14.242;2022-12-18T00:14:41;126.35;;;37.30;;
39896;SDS011;25567;48.276;14.242;2022-12-18T00:17:11;140.63;;;36.40;;
39896;SDS011;25567;48.276;14.242;2022-12-18T00:19:41;116.43;;;34.90;;
39896;SDS011;25567;48.276;14.242;2022-12-18T00:22:08;120.20;;;35.58;;
39896;SDS011;25567;48.276;14.242;2022-12-18T00:24:34;113.50;;;35.38;;
39896;SDS011;25567;48.276;14.242;2022-12-18T00:27:01;131.13;;;38.92;;
39896;SDS011;25567;48.276;14.242;2022-12-18T00:29:27;121.80;;;36.15;;
39896;SDS011;25567;48.276;14.242;2022-12-18T00:31:54;129.23;;;36.83;;
39896;SDS011;25567;48.276;14.242;2022-12-18T00:34:21;128.65;;;39.17;;
39896;SDS011;25567;48.276;14.242;2022-12-18T00:36:47;119.43;;;37.92;;
39896;SDS011;25567;48.276;14.242;2022-12-18T00:39:15;125.22;;;36.58;;
39896;SDS011;25567;48.276;14.242;2022-12-18T00:41:41;122.82;;;36.65;;
39896;SDS011;25567;48.276;14.242;2022-12-18T00:44:23;120.72;;;36.80;;
39896;SDS011;25567;48.276;14.242;2022-12-18T00:46:50;112.40;;;36.53;;
39896;SDS011;25567;48.276;14.242;2022-12-18T00:49:17;130.32;;;37.80;;
39896;SDS011;25567;48.276;14.242;2022-12-18T00:51:45;111.60;;;35.30;;
39896;SDS011;25567;48.276;14.242;2022-12-18T00:54:15;111.03;;;35.88;;
39896;SDS011;25567;48.276;14.242;2022-12-18T00:56:42;114.95;;;35.92;;
39896;SDS011;25567;48.276;14.242;2022-12-18T00:59:17;112.20;;;35.45;;
39896;SDS011;25567;48.276;14.242;2022-12-18T01:01:44;119.65;;;36.05;;
39896;SDS011;25567;48.276;14.242;2022-12-18T01:04:12;121.03;;;35.17;;
39896;SDS011;25567;48.276;14.242;2022-12-18T01:06:39;114.65;;;36.45;;
39896;SDS011;25567;48.276;14.242;2022-12-18T01:09:06;115.78;;;35.85;;
39896;SDS011;25567;48.276;14.242;2022-12-18T01:11:33;123.43;;;37.13;;
39896;SDS011;25567;48.276;14.242;2022-12-18T01:13:59;118.68;;;35.97;;
39896;SDS011;25567;48.276;14.242;2022-12-18T01:16:26;126.70;;;37.45;;
39896;SDS011;25567;48.276;14.242;2022-12-18T01:18:54;123.28;;;36.95;;
39896;SDS011;25567;48.276;14.242;2022-12-18T01:21:21;120.65;;;36.80;;
39896;SDS011;25567;48.276;14.242;2022-12-18T01:23:51;132.35;;;37.25;;
39896;SDS011;25567;48.276;14.242;2022-12-18T01:26:19;132.75;;;38.67;;
39896;SDS011;25567;48.276;14.242;2022-12-18T01:28:46;130.52;;;37.60;;
39896;SDS011;25567;48.276;14.242;2022-12-18T01:33:43;155.35;;;39.50;;
39896;SDS011;25567;48.276;14.242;2022-12-18T01:36:14;129.88;;;36.90;;
39896;SDS011;25567;48.276;14.242;2022-12-18T01:38:42;138.85;;;37.97;;
39896;SDS011;25567;48.276;14.242;2022-12-18T01:41:09;144.18;;;38.80;;
39896;SDS011;25567;48.276;14.242;2022-12-18T01:43:40;133.65;;;39.30;;
39896;SDS011;25567;48.276;14.242;2022-12-18T01:46:08;132.65;;;37.85;;
39896;SDS011;25567;48.276;14.242;2022-12-18T01:48:35;145.05;;;40.05;;
39896;SDS011;25567;48.276;14.242;2022-12-18T01:51:03;131.43;;;38.30;;
39896;SDS011;25567;48.276;14.242;2022-12-18T01:53:31;143.77;;;38.78;;
39896;SDS011;25567;48.276;14.242;2022-12-18T01:55:58;145.77;;;39.78;;
39896;SDS011;25567;48.276;14.242;2022-12-18T01:58:29;161.50;;;40.90;;
39896;SDS011;25567;48.276;14.242;2022-12-18T02:01:01;149.60;;;40.22;;
39896;SDS011;25567;48.276;14.242;2022-12-18T02:03:28;163.60;;;43.90;;
39896;SDS011;25567;48.276;14.242;2022-12-18T02:11:10;171.57;;;43.72;;
39896;SDS011;25567;48.276;14.242;2022-12-18T02:19:06;187.75;;;45.47;;
39896;SDS011;25567;48.276;14.242;2022-12-18T02:21:51;175.40;;;43.30;;
39896;SDS011;25567;48.276;14.242;2022-12-18T02:24:41;175.95;;;46.20;;
39896;SDS011;25567;48.276;14.242;2022-12-18T02:27:20;183.10;;;43.55;;
39896;SDS011;25567;48.276;14.242;2022-12-18T02:29:48;188.68;;;47.35;;
39896;SDS011;25567;48.276;14.242;2022-12-18T02:32:25;187.35;;;44.97;;
39896;SDS011;25567;48.276;14.242;2022-12-18T02:34:55;203.52;;;47.25;;
39896;SDS011;25567;48.276;14.242;2022-12-18T02:37:23;224.68;;;49.33;;
39896;SDS011;25567;48.276;14.242;2022-12-18T02:39:53;244.75;;;51.03;;
39896;SDS011;25567;48.276;14.242;2022-12-18T02:42:23;250.70;;;52.85;;
39896;SDS011;25567;48.276;14.242;2022-12-18T02:44:51;246.10;;;54.35;;
39896;SDS011;25567;48.276;14.242;2022-12-18T02:47:24;209.48;;;51.80;;
39896;SDS011;25567;48.276;14.242;2022-12-18T03:01:16;236.68;;;50.25;;
39896;SDS011;25567;48.276;14.242;2022-12-18T03:03:51;203.48;;;49.40;;
39896;SDS011;25567;48.276;14.242;2022-12-18T03:06:29;238.05;;;53.17;;
39896;SDS011;25567;48.276;14.242;2022-12-18T03:09:01;258.95;;;52.42;;
39896;SDS011;25567;48.276;14.242;2022-12-18T03:11:32;257.60;;;54.20;;
39896;SDS011;25567;48.276;14.242;2022-12-18T03:14:18;240.95;;;51.97;;
39896;SDS011;25567;48.276;14.242;2022-12-18T03:16:48;234.60;;;53.25;;
39896;SDS011;25567;48.276;14.242;2022-12-18T03:19:20;269.90;;;58.33;;
39896;SDS011;25567;48.276;14.242;2022-12-18T03:21:53;242.98;;;55.45;;
39896;SDS011;25567;48.276;14.242;2022-12-18T03:24:22;246.32;;;54.67;;
39896;SDS011;25567;48.276;14.242;2022-12-18T03:26:53;242.85;;;54.83;;
39896;SDS011;25567;48.276;14.242;2022-12-18T03:29:25;233.52;;;54.42;;
39896;SDS011;25567;48.276;14.242;2022-12-18T03:32:01;204.20;;;45.10;;
39896;SDS011;25567;48.276;14.242;2022-12-18T03:34:34;185.55;;;43.88;;
39896;SDS011;25567;48.276;14.242;2022-12-18T03:37:04;197.70;;;42.95;;
39896;SDS011;25567;48.276;14.242;2022-12-18T03:39:33;200.20;;;43.75;;
39896;SDS011;25567;48.276;14.242;2022-12-18T03:42:02;201.57;;;43.85;;
39896;SDS011;25567;48.276;14.242;2022-12-18T03:44:35;190.23;;;43.25;;
39896;SDS011;25567;48.276;14.242;2022-12-18T03:47:13;183.55;;;39.28;;
39896;SDS011;25567;48.276;14.242;2022-12-18T03:52:28;175.40;;;38.20;;
39896;SDS011;25567;48.276;14.242;2022-12-18T03:55:04;155.52;;;35.05;;
39896;SDS011;25567;48.276;14.242;2022-12-18T03:57:35;102.88;;;26.10;;
39896;SDS011;25567;48.276;14.242;2022-12-18T04:00:06;73.25;;;20.95;;
39896;SDS011;25567;48.276;14.242;2022-12-18T04:02:36;71.25;;;21.85;;
39896;SDS011;25567;48.276;14.242;2022-12-18T04:05:06;62.90;;;17.77;;
39896;SDS011;25567;48.276;14.242;2022-12-18T04:07:35;61.63;;;19.02;;
39896;SDS011;25567;48.276;14.242;2022-12-18T04:10:03;61.85;;;18.85;;
39896;SDS011;25567;48.276;14.242;2022-12-18T04:12:33;60.72;;;19.10;;
39896;SDS011;25567;48.276;14.242;2022-12-18T04:14:59;61.08;;;17.83;;
39896;SDS011;25567;48.276;14.242;2022-12-18T04:17:26;53.30;;;17.23;;
39896;SDS011;25567;48.276;14.242;2022-12-18T04:19:56;56.88;;;17.35;;
39896;SDS011;25567;48.276;14.242;2022-12-18T04:22:22;56.53;;;17.83;;
39896;SDS011;25567;48.276;14.242;2022-12-18T04:24:49;70.35;;;19.85;;
39896;SDS011;25567;48.276;14.242;2022-12-18T04:27:16;61.33;;;18.25;;
39896;SDS011;25567;48.276;14.242;2022-12-18T04:29:42;58.75;;;17.77;;
39896;SDS011;25567;48.276;14.242;2022-12-18T04:32:09;59.15;;;18.52;;
39896;SDS011;25567;48.276;14.242;2022-12-18T04:34:36;61.05;;;17.77;;
39896;SDS011;25567;48.276;14.242;2022-12-18T04:37:02;55.53;;;17.08;;
39896;SDS011;25567;48.276;14.242;2022-12-18T04:39:29;59.53;;;17.67;;
39896;SDS011;25567;48.276;14.242;2022-12-18T04:41:55;61.28;;;16.65;;
39896;SDS011;25567;48.276;14.242;2022-12-18T04:44:22;58.28;;;17.80;;
39896;SDS011;25567;48.276;14.242;2022-12-18T04:46:49;70.80;;;20.88;;
39896;SDS011;25567;48.276;14.242;2022-12-18T04:49:16;56.38;;;18.25;;
39896;SDS011;25567;48.276;14.242;2022-12-18T04:51:42;58.17;;;17.58;;
39896;SDS011;25567;48.276;14.242;2022-12-18T04:54:09;60.40;;;19.65;;
39896;SDS011;25567;48.276;14.242;2022-12-18T04:56:35;54.33;;;17.02;;
39896;SDS011;25567;48.276;14.242;2022-12-18T04:59:02;63.25;;;18.75;;
39896;SDS011;25567;48.276;14.242;2022-12-18T05:01:29;53.15;;;17.45;;
39896;SDS011;25567;48.276;14.242;2022-12-18T05:04:00;53.60;;;17.52;;
39896;SDS011;25567;48.276;14.242;2022-12-18T05:06:28;55.08;;;16.60;;
39896;SDS011;25567;48.276;14.242;2022-12-18T05:08:55;56.58;;;17.13;;
39896;SDS011;25567;48.276;14.242;2022-12-18T05:11:21;64.30;;;19.85;;
39896;SDS011;25567;48.276;14.242;2022-12-18T05:13:48;81.55;;;22.40;;
39896;SDS011;25567;48.276;14.242;2022-12-18T05:16:14;72.72;;;19.40;;
39896;SDS011;25567;48.276;14.242;2022-12-18T05:18:41;70.50;;;18.35;;
39896;SDS011;25567;48.276;14.242;2022-12-18T05:21:08;52.03;;;17.10;;
39896;SDS011;25567;48.276;14.242;2022-12-18T05:23:35;50.15;;;15.65;;
39896;SDS011;25567;48.276;14.242;2022-12-18T05:26:03;61.90;;;17.40;;
39896;SDS011;25567;48.276;14.242;2022-12-18T05:28:31;62.53;;;18.23;;
39896;SDS011;25567;48.276;14.242;2022-12-18T05:31:00;58.77;;;16.33;;
39896;SDS011;25567;48.276;14.242;2022-12-18T05:33:29;51.43;;;16.00;;
39896;SDS011;25567;48.276;14.242;2022-12-18T05:35:59;65.10;;;17.43;;
39896;SDS011;25567;48.276;14.242;2022-12-18T05:38:28;57.53;;;16.33;;
39896;SDS011;25567;48.276;14.242;2022-12-18T05:40:55;50.63;;;15.35;;
39896;SDS011;25567;48.276;14.242;2022-12-18T05:43:23;65.88;;;16.33;;
39896;SDS011;25567;48.276;14.242;2022-12-18T05:45:51;57.43;;;17.23;;
39896;SDS011;25567;48.276;14.242;2022-12-18T05:48:19;58.93;;;17.60;;
39896;SDS011;25567;48.276;14.242;2022-12-18T05:50:46;52.63;;;17.17;;
39896;SDS011;25567;48.276;14.242;2022-12-18T05:53:16;54.93;;;16.53;;
39896;SDS011;25567;48.276;14.242;2022-12-18T05:55:43;55.07;;;16.10;;
39896;SDS011;25567;48.276;14.242;2022-12-18T05:58:11;65.83;;;15.90;;
39896;SDS011;25567;48.276;14.242;2022-12-18T06:00:40;59.00;;;14.50;;
39896;SDS011;25567;48.276;14.242;2022-12-18T06:03:09;70.20;;;16.90;;
39896;SDS011;25567;48.276;14.242;2022-12-18T06:05:37;59.93;;;16.70;;
39896;SDS011;25567;48.276;14.242;2022-12-18T06:08:05;59.87;;;15.30;;
39896;SDS011;25567;48.276;14.242;2022-12-18T06:10:32;54.77;;;14.87;;
39896;SDS011;25567;48.276;14.242;2022-12-18T06:12:59;62.03;;;16.73;;
39896;SDS011;25567;48.276;14.242;2022-12-18T06:15:26;65.17;;;16.83;;
39896;SDS011;25567;48.276;14.242;2022-12-18T06:17:53;58.70;;;16.27;;
39896;SDS011;25567;48.276;14.242;2022-12-18T06:20:19;61.43;;;15.77;;
39896;SDS011;25567;48.276;14.242;2022-12-18T06:22:46;56.90;;;16.03;;
39896;SDS011;25567;48.276;14.242;2022-12-18T06:25:13;56.13;;;14.87;;
39896;SDS011;25567;48.276;14.242;2022-12-18T06:27:40;51.93;;;16.00;;
39896;SDS011;25567;48.276;14.242;2022-12-18T06:30:08;48.50;;;15.27;;
39896;SDS011;25567;48.276;14.242;2022-12-18T06:32:35;59.50;;;14.40;;
39896;SDS011;25567;48.276;14.242;2022-12-18T06:35:02;56.53;;;15.53;;
39896;SDS011;25567;48.276;14.242;2022-12-18T06:37:30;45.67;;;14.67;;
39896;SDS011;25567;48.276;14.242;2022-12-18T06:39:57;54.10;;;14.30;;
39896;SDS011;25567;48.276;14.242;2022-12-18T06:42:24;48.97;;;15.07;;
39896;SDS011;25567;48.276;14.242;2022-12-18T06:44:51;51.57;;;14.57;;
39896;SDS011;25567;48.276;14.242;2022-12-18T06:47:18;65.73;;;16.17;;
39896;SDS011;25567;48.276;14.242;2022-12-18T06:49:45;53.90;;;14.87;;
39896;SDS011;25567;48.276;14.242;2022-12-18T06:52:11;51.00;;;15.57;;
39896;SDS011;25567;48.276;14.242;2022-12-18T06:54:38;53.90;;;15.53;;
39896;SDS011;25567;48.276;14.242;2022-12-18T06:57:04;54.53;;;15.37;;
39896;SDS011;25567;48.276;14.242;2022-12-18T06:59:32;52.50;;;17.17;;
39896;SDS011;25567;48.276;14.242;2022-12-18T07:01:58;53.87;;;15.40;;
39896;SDS011;25567;48.276;14.242;2022-12-18T07:04:28;55.43;;;15.70;;
39896;SDS011;25567;48.276;14.242;2022-12-18T07:06:55;60.23;;;16.37;;
39896;SDS011;25567;48.276;14.242;2022-12-18T07:09:23;53.33;;;16.07;;
39896;SDS011;25567;48.276;14.242;2022-12-18T07:11:51;62.93;;;16.37;;
39896;SDS011;25567;48.276;14.242;2022-12-18T07:14:18;55.00;;;15.87;;
39896;SDS011;25567;48.276;14.242;2022-12-18T07:16:46;64.37;;;15.60;;
39896;SDS011;25567;48.276;14.242;2022-12-18T07:19:13;55.87;;;15.40;;
39896;SDS011;25567;48.276;14.242;2022-12-18T07:21:40;52.00;;;13.97;;
39896;SDS011;25567;48.276;14.242;2022-12-18T07:24:07;49.90;;;14.67;;
39896;SDS011;25567;48.276;14.242;2022-12-18T07:26:34;57.37;;;15.43;;
39896;SDS011;25567;48.276;14.242;2022-12-18T07:29:00;56.50;;;14.27;;
39896;SDS011;25567;48.276;14.242;2022-12-18T07:31:27;47.90;;;14.83;;
39896;SDS011;25567;48.276;14.242;2022-12-18T07:33:54;54.33;;;13.83;;
39896;SDS011;25567;48.276;14.242;2022-12-18T07:36:21;60.70;;;16.40;;
39896;SDS011;25567;48.276;14.242;2022-12-18T07:38:48;62.90;;;16.60;;
39896;SDS011;25567;48.276;14.242;2022-12-18T07:41:15;49.20;;;15.23;;
39896;SDS011;25567;48.276;14.242;2022-12-18T07:43:42;47.30;;;15.30;;
39896;SDS011;25567;48.276;14.242;2022-12-18T07:46:10;52.87;;;16.07;;
39896;SDS011;25567;48.276;14.242;2022-12-18T07:48:40;53.27;;;15.93;;
39896;SDS011;25567;48.276;14.242;2022-12-18T07:51:10;57.97;;;15.47;;
39896;SDS011;25567;48.276;14.242;2022-12-18T07:53:37;58.03;;;16.93;;
39896;SDS011;25567;48.276;14.242;2022-12-18T07:56:09;49.40;;;15.67;;
39896;SDS011;25567;48.276;14.242;2022-12-18T07:58:53;48.00;;;14.55;;
39896;SDS011;25567;48.276;14.242;2022-12-18T08:01:20;48.90;;;16.02;;
39896;SDS011;25567;48.276;14.242;2022-12-18T08:03:47;46.10;;;14.40;;
39896;SDS011;25567;48.276;14.242;2022-12-18T08:06:15;47.72;;;15.02;;
39896;SDS011;25567;48.276;14.242;2022-12-18T08:08:42;51.73;;;15.87;;
39896;SDS011;25567;48.276;14.242;2022-12-18T08:11:08;46.93;;;15.30;;
39896;SDS011;25567;48.276;14.242;2022-12-18T08:13:35;45.47;;;13.97;;
39896;SDS011;25567;48.276;14.242;2022-12-18T08:16:04;54.30;;;16.65;;
39896;SDS011;25567;48.276;14.242;2022-12-18T08:18:33;40.38;;;14.05;;
39896;SDS011;25567;48.276;14.242;2022-12-18T08:21:07;39.72;;;13.88;;
39896;SDS011;25567;48.276;14.242;2022-12-18T08:23:35;39.60;;;13.05;;
39896;SDS011;25567;48.276;14.242;2022-12-18T08:26:08;35.97;;;12.38;;
39896;SDS011;25567;48.276;14.242;2022-12-18T08:28:34;47.55;;;14.52;;
39896;SDS011;25567;48.276;14.242;2022-12-18T08:31:02;40.03;;;13.40;;
39896;SDS011;25567;48.276;14.242;2022-12-18T08:33:28;33.03;;;12.15;;
39896;SDS011;25567;48.276;14.242;2022-12-18T08:35:55;34.05;;;12.55;;
39896;SDS011;25567;48.276;14.242;2022-12-18T08:38:22;42.45;;;13.35;;
39896;SDS011;25567;48.276;14.242;2022-12-18T08:40:49;55.45;;;14.07;;
39896;SDS011;25567;48.276;14.242;2022-12-18T08:43:16;48.45;;;14.10;;
39896;SDS011;25567;48.276;14.242;2022-12-18T08:45:58;39.92;;;11.85;;
39896;SDS011;25567;48.276;14.242;2022-12-18T08:48:25;36.10;;;11.45;;
39896;SDS011;25567;48.276;14.242;2022-12-18T08:50:55;34.53;;;12.32;;
39896;SDS011;25567;48.276;14.242;2022-12-18T08:53:23;42.83;;;12.10;;
39896;SDS011;25567;48.276;14.242;2022-12-18T08:55:50;44.55;;;12.32;;
39896;SDS011;25567;48.276;14.242;2022-12-18T08:58:17;30.88;;;11.63;;
39896;SDS011;25567;48.276;14.242;2022-12-18T09:00:44;34.10;;;11.95;;
39896;SDS011;25567;48.276;14.242;2022-12-18T09:03:12;30.85;;;11.45;;
39896;SDS011;25567;48.276;14.242;2022-12-18T09:05:41;36.08;;;12.40;;
39896;SDS011;25567;48.276;14.242;2022-12-18T09:08:09;28.90;;;10.88;;
39896;SDS011;25567;48.276;14.242;2022-12-18T09:10:40;34.40;;;11.82;;
39896;SDS011;25567;48.276;14.242;2022-12-18T09:13:09;36.60;;;12.23;;
39896;SDS011;25567;48.276;14.242;2022-12-18T09:15:45;32.35;;;11.48;;
39896;SDS011;25567;48.276;14.242;2022-12-18T09:18:14;39.17;;;12.27;;
39896;SDS011;25567;48.276;14.242;2022-12-18T09:20:42;38.33;;;11.75;;
39896;SDS011;25567;48.276;14.242;2022-12-18T09:23:10;37.03;;;11.85;;
39896;SDS011;25567;48.276;14.242;2022-12-18T09:25:37;36.47;;;11.80;;
39896;SDS011;25567;48.276;14.242;2022-12-18T09:28:06;37.30;;;12.75;;
39896;SDS011;25567;48.276;14.242;2022-12-18T09:30:38;35.55;;;12.35;;
39896;SDS011;25567;48.276;14.242;2022-12-18T09:33:05;38.95;;;12.52;;
39896;SDS011;25567;48.276;14.242;2022-12-18T09:35:32;34.58;;;12.55;;
39896;SDS011;25567;48.276;14.242;2022-12-18T09:38:03;32.72;;;11.32;;
39896;SDS011;25567;48.276;14.242;2022-12-18T09:40:32;36.50;;;12.13;;
39896;SDS011;25567;48.276;14.242;2022-12-18T09:43:03;36.63;;;12.10;;
39896;SDS011;25567;48.276;14.242;2022-12-18T09:45:38;35.00;;;11.90;;
39896;SDS011;25567;48.276;14.242;2022-12-18T09:48:14;35.13;;;11.18;;
39896;SDS011;25567;48.276;14.242;2022-12-18T09:50:46;35.97;;;11.80;;
39896;SDS011;25567;48.276;14.242;2022-12-18T09:53:15;28.13;;;11.02;;
39896;SDS011;25567;48.276;14.242;2022-12-18T09:55:47;36.80;;;12.25;;
39896;SDS011;25567;48.276;14.242;2022-12-18T09:58:19;33.60;;;11.00;;
39896;SDS011;25567;48.276;14.242;2022-12-18T10:00:53;27.38;;;10.30;;
39896;SDS011;25567;48.276;14.242;2022-12-18T10:03:20;27.30;;;10.90;;
39896;SDS011;25567;48.276;14.242;2022-12-18T10:14:20;31.85;;;8.85;;
39896;SDS011;25567;48.276;14.242;2022-12-18T10:22:16;28.75;;;8.75;;
39896;SDS011;25567;48.276;14.242;2022-12-18T10:24:55;25.83;;;8.90;;
39896;SDS011;25567;48.276;14.242;2022-12-18T10:27:25;18.15;;;7.97;;
39896;SDS011;25567;48.276;14.242;2022-12-18T10:29:53;21.75;;;8.57;;
39896;SDS011;25567;48.276;14.242;2022-12-18T10:32:22;22.40;;;8.52;;
39896;SDS011;25567;48.276;14.242;2022-12-18T10:34:53;21.27;;;8.77;;
39896;SDS011;25567;48.276;14.242;2022-12-18T10:37:29;16.45;;;6.97;;
39896;SDS011;25567;48.276;14.242;2022-12-18T10:42:55;15.15;;;7.72;;
39896;SDS011;25567;48.276;14.242;2022-12-18T10:45:30;18.70;;;7.93;;
39896;SDS011;25567;48.276;14.242;2022-12-18T10:47:57;20.42;;;7.43;;
39896;SDS011;25567;48.276;14.242;2022-12-18T10:50:26;17.38;;;7.43;;
39896;SDS011;25567;48.276;14.242;2022-12-18T10:53:19;18.65;;;6.65;;
39896;SDS011;25567;48.276;14.242;2022-12-18T10:55:48;19.27;;;7.60;;
39896;SDS011;25567;48.276;14.242;2022-12-18T10:58:26;16.65;;;6.78;;
39896;SDS011;25567;48.276;14.242;2022-12-18T11:01:04;21.65;;;7.22;;
39896;SDS011;25567;48.276;14.242;2022-12-18T11:06:12;17.73;;;7.45;;
39896;SDS011;25567;48.276;14.242;2022-12-18T11:08:41;19.70;;;7.68;;
39896;SDS011;25567;48.276;14.242;2022-12-18T11:16:36;22.02;;;8.20;;
39896;SDS011;25567;48.276;14.242;2022-12-18T11:22:00;19.65;;;7.68;;
39896;SDS011;25567;48.276;14.242;2022-12-18T11:24:30;22.85;;;8.15;;
39896;SDS011;25567;48.276;14.242;2022-12-18T11:27:00;18.88;;;8.18;;
39896;SDS011;25567;48.276;14.242;2022-12-18T11:29:31;20.58;;;8.00;;
39896;SDS011;25567;48.276;14.242;2022-12-18T11:34:52;22.00;;;9.55;;
39896;SDS011;25567;48.276;14.242;2022-12-18T11:37:26;23.65;;;8.30;;
39896;SDS011;25567;48.276;14.242;2022-12-18T11:39:56;26.42;;;9.88;;
39896;SDS011;25567;48.276;14.242;2022-12-18T11:48:03;25.58;;;9.57;;
39896;SDS011;25567;48.276;14.242;2022-12-18T11:50:51;28.90;;;10.25;;
39896;SDS011;25567;48.276;14.242;2022-12-18T11:53:20;25.98;;;10.48;;
39896;SDS011;25567;48.276;14.242;2022-12-18T11:58:49;34.27;;;11.47;;
39896;SDS011;25567;48.276;14.242;2022-12-18T12:07:24;37.03;;;13.13;;
39896;SDS011;25567;48.276;14.242;2022-12-18T12:12:48;40.72;;;14.70;;
39896;SDS011;25567;48.276;14.242;2022-12-18T12:15:46;40.75;;;13.30;;
39896;SDS011;25567;48.276;14.242;2022-12-18T12:21:28;41.35;;;14.48;;
39896;SDS011;25567;48.276;14.242;2022-12-18T12:40:49;41.92;;;15.60;;
39896;SDS011;25567;48.276;14.242;2022-12-18T12:43:37;51.17;;;17.30;;
39896;SDS011;25567;48.276;14.242;2022-12-18T12:46:16;43.50;;;16.38;;
39896;SDS011;25567;48.276;14.242;2022-12-18T12:48:46;50.50;;;16.58;;
39896;SDS011;25567;48.276;14.242;2022-12-18T12:51:18;36.97;;;15.07;;
39896;SDS011;25567;48.276;14.242;2022-12-18T12:53:51;51.40;;;17.95;;
39896;SDS011;25567;48.276;14.242;2022-12-18T12:56:20;42.95;;;17.20;;
39896;SDS011;25567;48.276;14.242;2022-12-18T13:01:49;42.00;;;16.85;;
39896;SDS011;25567;48.276;14.242;2022-12-18T13:12:56;42.22;;;16.52;;
39896;SDS011;25567;48.276;14.242;2022-12-18T13:18:10;41.25;;;15.75;;
39896;SDS011;25567;48.276;14.242;2022-12-18T13:23:31;56.83;;;17.70;;
39896;SDS011;25567;48.276;14.242;2022-12-18T13:26:28;43.00;;;16.23;;
39896;SDS011;25567;48.276;14.242;2022-12-18T13:28:55;50.50;;;17.55;;
39896;SDS011;25567;48.276;14.242;2022-12-18T13:36:54;45.95;;;16.67;;
39896;SDS011;25567;48.276;14.242;2022-12-18T13:39:24;47.72;;;16.30;;
39896;SDS011;25567;48.276;14.242;2022-12-18T13:48:13;47.00;;;18.00;;
39896;SDS011;25567;48.276;14.242;2022-12-18T13:50:42;49.35;;;17.73;;
39896;SDS011;25567;48.276;14.242;2022-12-18T13:53:20;48.50;;;16.88;;
39896;SDS011;25567;48.276;14.242;2022-12-18T13:55:51;50.15;;;17.40;;
39896;SDS011;25567;48.276;14.242;2022-12-18T13:58:18;44.53;;;16.08;;
39896;SDS011;25567;48.276;14.242;2022-12-18T14:00:45;49.08;;;18.13;;
39896;SDS011;25567;48.276;14.242;2022-12-18T14:05:58;54.92;;;18.17;;
39896;SDS011;25567;48.276;14.242;2022-12-18T14:08:29;47.55;;;16.90;;
39896;SDS011;25567;48.276;14.242;2022-12-18T14:11:01;48.83;;;17.05;;
39896;SDS011;25567;48.276;14.242;2022-12-18T14:13:31;48.65;;;17.77;;
39896;SDS011;25567;48.276;14.242;2022-12-18T14:16:01;54.80;;;19.23;;
39896;SDS011;25567;48.276;14.242;2022-12-18T14:21:19;52.90;;;17.75;;
39896;SDS011;25567;48.276;14.242;2022-12-18T14:26:29;46.72;;;15.23;;
39896;SDS011;25567;48.276;14.242;2022-12-18T14:28:58;56.78;;;17.58;;
39896;SDS011;25567;48.276;14.242;2022-12-18T14:31:28;43.05;;;15.50;;
39896;SDS011;25567;48.276;14.242;2022-12-18T14:33:56;46.60;;;16.33;;
39896;SDS011;25567;48.276;14.242;2022-12-18T14:36:24;43.47;;;15.30;;
39896;SDS011;25567;48.276;14.242;2022-12-18T14:39:00;46.01;;;17.11;;
39896;SDS011;25567;48.276;14.242;2022-12-18T14:41:26;48.60;;;16.63;;
39896;SDS011;25567;48.276;14.242;2022-12-18T14:43:54;45.47;;;16.15;;
39896;SDS011;25567;48.276;14.242;2022-12-18T14:49:00;51.03;;;17.40;;
39896;SDS011;25567;48.276;14.242;2022-12-18T14:51:31;45.92;;;15.38;;
39896;SDS011;25567;48.276;14.242;2022-12-18T14:54:01;45.53;;;16.00;;
39896;SDS011;25567;48.276;14.242;2022-12-18T14:56:31;46.25;;;15.50;;
39896;SDS011;25567;48.276;14.242;2022-12-18T15:01:39;54.97;;;18.58;;
39896;SDS011;25567;48.276;14.242;2022-12-18T15:07:10;48.78;;;15.73;;
39896;SDS011;25567;48.276;14.242;2022-12-18T15:09:38;49.88;;;16.50;;
39896;SDS011;25567;48.276;14.242;2022-12-18T15:14:52;54.13;;;17.20;;
39896;SDS011;25567;48.276;14.242;2022-12-18T15:17:21;48.13;;;15.95;;
39896;SDS011;25567;48.276;14.242;2022-12-18T15:19:52;52.78;;;17.08;;
39896;SDS011;25567;48.276;14.242;2022-12-18T15:22:26;50.78;;;18.25;;
39896;SDS011;25567;48.276;14.242;2022-12-18T15:24:55;55.80;;;16.27;;
39896;SDS011;25567;48.276;14.242;2022-12-18T15:30:16;58.42;;;19.05;;
39896;SDS011;25567;48.276;14.242;2022-12-18T15:32:45;58.85;;;19.42;;
39896;SDS011;25567;48.276;14.242;2022-12-18T15:35:14;58.97;;;18.25;;
39896;SDS011;25567;48.276;14.242;2022-12-18T15:37:50;56.92;;;18.63;;
39896;SDS011;25567;48.276;14.242;2022-12-18T15:40:20;64.55;;;18.42;;
39896;SDS011;25567;48.276;14.242;2022-12-18T15:42:51;57.65;;;17.95;;
39896;SDS011;25567;48.276;14.242;2022-12-18T15:45:35;51.28;;;17.02;;
39896;SDS011;25567;48.276;14.242;2022-12-18T15:48:04;52.70;;;16.98;;
39896;SDS011;25567;48.276;14.242;2022-12-18T15:50:41;58.85;;;18.30;;
39896;SDS011;25567;48.276;14.242;2022-12-18T15:53:08;56.80;;;18.10;;
39896;SDS011;25567;48.276;14.242;2022-12-18T15:55:35;53.42;;;18.30;;
39896;SDS011;25567;48.276;14.242;2022-12-18T15:58:21;55.50;;;18.88;;
39896;SDS011;25567;48.276;14.242;2022-12-18T16:00:48;57.40;;;17.95;;
39896;SDS011;25567;48.276;14.242;2022-12-18T16:03:14;66.13;;;18.42;;
39896;SDS011;25567;48.276;14.242;2022-12-18T16:05:41;57.28;;;19.02;;
39896;SDS011;25567;48.276;14.242;2022-12-18T16:08:08;61.72;;;18.20;;
39896;SDS011;25567;48.276;14.242;2022-12-18T16:10:34;55.50;;;19.50;;
39896;SDS011;25567;48.276;14.242;2022-12-18T16:13:01;58.28;;;18.30;;
39896;SDS011;25567;48.276;14.242;2022-12-18T16:15:27;54.03;;;17.55;;
39896;SDS011;25567;48.276;14.242;2022-12-18T16:17:54;57.70;;;18.55;;
39896;SDS011;25567;48.276;14.242;2022-12-18T16:20:21;54.53;;;18.38;;
39896;SDS011;25567;48.276;14.242;2022-12-18T16:22:52;63.92;;;20.55;;
39896;SDS011;25567;48.276;14.242;2022-12-18T16:25:23;62.47;;;19.48;;
39896;SDS011;25567;48.276;14.242;2022-12-18T16:27:53;49.10;;;18.15;;
39896;SDS011;25567;48.276;14.242;2022-12-18T16:30:22;64.82;;;18.90;;
39896;SDS011;25567;48.276;14.242;2022-12-18T16:32:54;59.47;;;19.40;;
39896;SDS011;25567;48.276;14.242;2022-12-18T16:35:21;55.75;;;18.70;;
39896;SDS011;25567;48.276;14.242;2022-12-18T16:37:48;58.30;;;19.85;;
39896;SDS011;25567;48.276;14.242;2022-12-18T16:40:15;65.60;;;19.63;;
39896;SDS011;25567;48.276;14.242;2022-12-18T16:42:43;57.55;;;18.10;;
39896;SDS011;25567;48.276;14.242;2022-12-18T16:45:13;62.20;;;19.20;;
39896;SDS011;25567;48.276;14.242;2022-12-18T16:47:43;61.92;;;18.05;;